Time;durP1;ratioP1;P1;durP2;ratioP2;P2;SDS_P1;SDS_P2;PMS_P1;PMS_P2;Temp;Humidity;BMP_temperature;BMP_pressure;BME280_temperature;BME280_humidity;BME280_pressure;Samples;Min_cycle;Max_cycle;Signal;HPM_P1;HPM_P2
2022/01/27 00:00:44;;;;;;;;;49.00;39.00;;;;;5.28;70.70;102591.16;5034567;28;45645;-75
2022/01/27 00:05:38;;;;;;;;;42.50;34.50;;;;;5.40;70.71;102597.88;5034949;28;46372;-77
2022/01/27 00:10:53;;;;;;;;;39.00;33.25;;;;;5.42;70.62;102589.16;5034369;28;45492;-77
2022/01/27 00:13:25;;;;;;;;;38.75;33.25;;;;;5.48;70.30;102594.25;5034473;28;45653;-77
2022/01/27 00:15:59;;;;;;;;;34.75;27.75;;;;;5.41;70.11;102576.19;5034205;28;46334;-77
2022/01/27 00:18:24;;;;;;;;;40.00;30.50;;;;;5.45;70.55;102578.72;5034405;28;46546;-78
2022/01/27 00:20:50;;;;;;;;;39.75;29.50;;;;;5.52;70.33;102579.47;5034477;28;45638;-77
2022/01/27 00:23:16;;;;;;;;;41.00;32.50;;;;;5.56;70.25;102591.50;5034966;28;45723;-77
2022/01/27 00:25:42;;;;;;;;;52.75;34.25;;;;;5.51;70.30;102569.13;5034464;28;46585;-77
2022/01/27 00:28:07;;;;;;;;;35.75;29.25;;;;;5.60;70.18;102576.72;5035045;28;45867;-78
2022/01/27 00:30:34;;;;;;;;;39.25;33.25;;;;;5.51;70.00;102558.72;5037849;28;45589;-79
2022/01/27 00:32:59;;;;;;;;;32.00;29.50;;;;;5.64;70.21;102578.38;5035894;28;45668;-78
2022/01/27 00:35:25;;;;;;;;;42.00;35.25;;;;;5.53;70.20;102555.19;5035230;28;45731;-79
2022/01/27 00:37:50;;;;;;;;;37.75;29.00;;;;;5.68;70.16;102573.09;5035606;28;46195;-78
2022/01/27 00:40:16;;;;;;;;;41.75;34.75;;;;;5.68;70.31;102561.81;5035561;28;45743;-78
2022/01/27 00:42:42;;;;;;;;;42.25;35.25;;;;;5.72;70.20;102566.94;5034601;28;45558;-77
2022/01/27 00:45:09;;;;;;;;;49.00;39.75;;;;;5.72;70.42;102559.13;5033877;28;46534;-76
2022/01/27 00:47:35;;;;;;;;;55.25;39.75;;;;;5.74;70.06;102549.56;5035001;28;46120;-79
2022/01/27 00:50:01;;;;;;;;;43.00;33.00;;;;;5.76;69.88;102550.41;5033796;28;45857;-77
2022/01/27 00:52:34;;;;;;;;;43.75;34.50;;;;;5.77;69.82;102552.13;5034162;28;45836;-78
2022/01/27 00:54:59;;;;;;;;;39.00;30.50;;;;;5.78;70.11;102551.22;5033843;28;46303;-79
2022/01/27 00:57:41;;;;;;;;;39.25;29.75;;;;;5.79;69.90;102545.13;5033859;28;45848;-78
2022/01/27 01:00:09;;;;;;;;;39.00;34.50;;;;;5.79;70.22;102531.25;5033476;28;45877;-78
2022/01/27 01:07:44;;;;;;;;;43.50;33.75;;;;;5.74;69.75;102513.16;5033449;28;45701;-79
2022/01/27 01:15:26;;;;;;;;;42.75;35.00;;;;;5.81;69.85;102517.34;5033611;28;45691;-78
2022/01/27 01:18:06;;;;;;;;;49.25;36.25;;;;;5.89;69.52;102531.06;5031940;28;46997;-77
2022/01/27 01:31:32;;;;;;;;;49.25;39.75;;;;;5.93;70.13;102528.44;5036998;28;45822;-77
2022/01/27 01:34:15;;;;;;;;;43.25;29.00;;;;;5.92;69.65;102516.31;5036668;28;45779;-78
2022/01/27 01:37:18;;;;;;;;;50.25;40.25;;;;;5.94;69.72;102514.53;5037067;28;45589;-77
2022/01/27 01:39:36;;;;;;;;;48.00;40.25;;;;;5.95;69.38;102513.63;5037484;28;47249;-78
2022/01/27 01:42:05;;;;;;;;;49.25;41.75;;;;;5.95;69.64;102519.69;5036871;28;45568;-78
2022/01/27 01:44:30;;;;;;;;;48.00;39.50;;;;;5.87;69.85;102496.47;5036918;28;45624;-77
2022/01/27 01:46:56;;;;;;;;;55.50;39.50;;;;;5.90;69.48;102504.19;5036611;28;45636;-79
2022/01/27 01:49:26;;;;;;;;;52.25;40.25;;;;;5.98;70.03;102510.97;5036263;28;45642;-80
2022/01/27 01:51:52;;;;;;;;;43.00;35.25;;;;;5.88;69.98;102497.31;5036057;28;45607;-78
2022/01/27 01:54:18;;;;;;;;;59.25;43.25;;;;;5.95;69.52;102505.81;5036501;28;45768;-79
2022/01/27 01:56:43;;;;;;;;;41.50;32.00;;;;;5.98;69.78;102503.19;5035984;28;47101;-78
2022/01/27 01:59:09;;;;;;;;;52.25;42.00;;;;;5.99;69.59;102503.16;5035727;28;46901;-78
2022/01/27 02:01:37;;;;;;;;;47.75;40.50;;;;;5.87;69.90;102473.06;5036272;28;45525;-78
2022/01/27 02:04:05;;;;;;;;;55.25;42.75;;;;;5.95;69.71;102488.47;5036225;28;45680;-79
2022/01/27 02:06:37;;;;;;;;;48.50;41.00;;;;;5.83;69.51;102466.16;5035721;28;45735;-79
2022/01/27 02:09:51;;;;;;;;;50.75;42.50;;;;;5.92;69.66;102482.50;5036093;28;47111;-78
2022/01/27 02:20:10;;;;;;;;;59.25;41.00;;;;;5.77;69.27;102457.66;5036036;28;46244;-79
2022/01/27 02:22:36;;;;;;;;;58.25;42.25;;;;;5.84;69.82;102470.47;5035837;28;45911;-78
2022/01/27 02:25:03;;;;;;;;;48.75;38.75;;;;;5.91;69.77;102479.03;5036018;28;45569;-78
2022/01/27 02:27:29;;;;;;;;;63.25;44.50;;;;;5.91;69.76;102471.22;5036004;28;45582;-78
2022/01/27 02:30:00;;;;;;;;;55.00;44.75;;;;;5.90;69.46;102475.56;5034421;28;45632;-80
2022/01/27 02:32:25;;;;;;;;;55.75;41.00;;;;;5.85;69.37;102466.97;5035924;28;45704;-79
2022/01/27 02:34:51;;;;;;;;;56.25;43.00;;;;;5.88;69.84;102466.94;5035970;28;45844;-80
2022/01/27 02:37:17;;;;;;;;;52.75;40.00;;;;;5.84;69.87;102454.00;5036030;28;46294;-80
2022/01/27 02:39:42;;;;;;;;;57.25;41.50;;;;;5.88;69.55;102466.94;5035748;28;46332;-80
2022/01/27 02:42:16;;;;;;;;;57.75;41.75;;;;;5.89;69.86;102465.19;5035834;28;45515;-79
2022/01/27 02:44:48;;;;;;;;;44.50;37.50;;;;;5.89;69.38;102452.19;5051472;28;45787;-79
2022/01/27 02:47:17;;;;;;;;;56.75;42.50;;;;;5.83;69.23;102447.94;5035660;28;46657;-78
2022/01/27 02:49:43;;;;;;;;;45.00;35.75;;;;;5.85;69.55;102448.78;5036071;28;45599;-78
2022/01/27 02:52:09;;;;;;;;;48.50;43.25;;;;;5.88;69.40;102448.72;5036261;28;45899;-79
2022/01/27 02:54:35;;;;;;;;;52.75;43.00;;;;;5.89;69.67;102447.84;5039345;28;45691;-76
2022/01/27 02:57:01;;;;;;;;;50.25;41.75;;;;;5.66;69.69;102407.63;5038365;28;45548;-78
2022/01/27 02:59:26;;;;;;;;;59.75;42.25;;;;;5.79;69.75;102437.66;5036922;28;46266;-78
2022/01/27 03:01:52;;;;;;;;;58.00;42.25;;;;;5.88;69.43;102450.50;5036582;28;45543;-77
2022/01/27 03:04:19;;;;;;;;;54.25;42.25;;;;;5.84;69.58;102444.47;5035789;28;45550;-79
2022/01/27 03:06:46;;;;;;;;;59.00;44.75;;;;;5.85;69.58;102440.97;5036954;28;45677;-78
2022/01/27 03:09:11;;;;;;;;;57.25;43.50;;;;;5.86;69.78;102449.63;5035511;28;46156;-79
2022/01/27 03:11:48;;;;;;;;;53.25;42.75;;;;;5.84;69.73;102449.66;5035426;28;45658;-76
2022/01/27 03:14:22;;;;;;;;;46.25;39.25;;;;;5.86;69.96;102439.22;5035099;28;45527;-79
2022/01/27 03:16:48;;;;;;;;;52.50;40.25;;;;;5.87;69.44;102441.84;5035148;28;45656;-75
2022/01/27 03:19:14;;;;;;;;;52.75;43.00;;;;;5.86;69.59;102437.50;5035158;28;46257;-77
2022/01/27 03:21:39;;;;;;;;;62.75;43.75;;;;;5.85;69.54;102434.91;5034781;28;45583;-77
2022/01/27 03:24:05;;;;;;;;;56.75;42.75;;;;;5.82;69.54;102424.59;5034705;28;45649;-76
2022/01/27 03:26:31;;;;;;;;;56.25;41.50;;;;;5.87;69.71;102446.19;5034926;28;46212;-77
2022/01/27 03:28:58;;;;;;;;;58.25;43.00;;;;;5.86;69.56;102437.50;5034858;28;45840;-77
2022/01/27 03:31:23;;;;;;;;;42.50;36.50;;;;;5.85;69.42;102435.78;5035134;28;45699;-77
2022/01/27 03:33:49;;;;;;;;;52.25;42.25;;;;;5.86;69.67;102437.50;5035068;28;45877;-79
2022/01/27 03:36:15;;;;;;;;;52.75;40.75;;;;;5.87;69.84;102436.66;5035053;28;45586;-79
2022/01/27 03:38:41;;;;;;;;;58.25;39.00;;;;;5.82;69.62;102429.78;5034744;28;46063;-76
2022/01/27 03:41:08;;;;;;;;;51.00;39.75;;;;;5.83;69.18;102445.34;5034410;28;45670;-79
2022/01/27 03:43:36;;;;;;;;;53.75;40.75;;;;;5.76;69.75;102422.97;5035116;28;45756;-78
2022/01/27 03:46:02;;;;;;;;;43.00;37.50;;;;;5.84;69.67;102441.84;5034800;28;45546;-78
2022/01/27 03:48:27;;;;;;;;;55.75;42.75;;;;;5.85;69.90;102438.38;5034699;28;46263;-77
2022/01/27 03:50:53;;;;;;;;;47.00;39.25;;;;;5.84;69.60;102444.47;5034904;28;45658;-77
2022/01/27 03:56:39;;;;;;;;;51.00;38.25;;;;;5.81;69.57;102431.53;5034530;28;45971;-76
2022/01/27 03:59:05;;;;;;;;;50.00;42.50;;;;;5.80;69.38;102427.22;5034430;28;45856;-78
2022/01/27 04:01:31;;;;;;;;;46.75;38.00;;;;;5.85;69.40;102438.38;5034441;28;45452;-78
2022/01/27 04:03:58;;;;;;;;;46.00;34.00;;;;;5.82;69.56;102429.78;5034557;28;45702;-78
2022/01/27 04:06:33;;;;;;;;;46.25;34.00;;;;;5.77;69.40;102422.09;5049681;28;46495;-79
2022/01/27 04:09:00;;;;;;;;;58.75;43.00;;;;;5.85;69.58;102430.56;5034318;28;46707;-77
2022/01/27 04:11:26;;;;;;;;;50.50;38.00;;;;;5.85;69.75;102432.31;5034585;28;45821;-79
2022/01/27 04:13:51;;;;;;;;;55.25;41.50;;;;;5.85;69.59;102437.50;5035036;28;45764;-78
2022/01/27 04:16:17;;;;;;;;;44.75;35.25;;;;;5.85;69.69;102430.56;5034653;28;46185;-78
2022/01/27 04:18:42;;;;;;;;;52.75;43.25;;;;;5.80;69.73;102426.38;5034606;28;45616;-79
2022/01/27 04:21:07;;;;;;;;;49.75;41.25;;;;;5.85;69.36;102419.31;5034579;28;46133;-78
2022/01/27 04:27:16;;;;;;;;;50.25;38.00;;;;;5.82;69.82;102420.25;5024818;28;45788;-78
2022/01/27 04:29:42;;;;;;;;;41.00;35.75;;;;;5.84;69.59;102428.00;5034039;28;47293;-78
2022/01/27 04:32:09;;;;;;;;;60.75;40.50;;;;;5.80;69.87;102423.75;5032558;28;46119;-76
2022/01/27 04:34:37;;;;;;;;;54.50;39.75;;;;;5.82;69.62;102424.59;5034034;28;45796;-78
2022/01/27 04:37:04;;;;;;;;;46.75;35.75;;;;;5.85;69.44;102427.97;5034012;28;47503;-79
2022/01/27 04:39:37;;;;;;;;;49.75;40.25;;;;;5.86;69.74;102434.03;5033732;28;46280;-76
2022/01/27 04:42:18;;;;;;;;;44.50;37.50;;;;;5.77;69.46;102426.44;5034386;28;45564;-79
2022/01/27 04:44:59;;;;;;;;;49.75;39.00;;;;;5.84;69.97;102435.81;5049707;28;45648;-78
2022/01/27 04:47:37;;;;;;;;;50.75;43.25;;;;;5.85;69.84;102435.78;5032918;28;46859;-79
2022/01/27 04:50:03;;;;;;;;;46.75;38.25;;;;;5.85;70.00;102433.19;5033601;28;46676;-76
2022/01/27 04:52:32;;;;;;;;;48.00;40.25;;;;;5.86;69.54;102423.63;5033473;28;45543;-79
2022/01/27 04:55:05;;;;;;;;;50.75;38.75;;;;;5.87;69.90;102434.03;5036978;28;45641;-77
2022/01/27 04:57:31;;;;;;;;;48.25;38.25;;;;;5.84;70.00;102421.06;5037352;28;46634;-80
2022/01/27 04:59:57;;;;;;;;;48.50;40.00;;;;;5.88;69.60;102427.09;5037589;28;46255;-78
2022/01/27 05:02:35;;;;;;;;;50.50;41.50;;;;;5.87;69.47;102423.63;5038980;28;45527;-80
2022/01/27 05:05:01;;;;;;;;;49.00;38.75;;;;;5.83;69.73;102416.72;5038497;28;45638;-79
2022/01/27 05:07:26;;;;;;;;;45.50;33.75;;;;;5.87;69.42;102426.25;5037527;28;46430;-79
2022/01/27 05:09:57;;;;;;;;;46.25;35.50;;;;;5.90;69.66;102423.56;5039393;28;46870;-80
2022/01/27 05:12:39;;;;;;;;;51.75;40.25;;;;;5.89;69.54;102427.03;5039430;28;45669;-76
2022/01/27 05:15:05;;;;;;;;;45.00;38.00;;;;;5.89;69.55;102416.63;5053776;28;45982;-77
2022/01/27 05:17:31;;;;;;;;;52.75;38.25;;;;;5.82;69.77;102398.59;5038043;28;46733;-77
2022/01/27 05:19:56;;;;;;;;;48.00;36.50;;;;;5.90;69.77;102420.09;5037026;28;47138;-77
2022/01/27 05:22:22;;;;;;;;;42.25;39.75;;;;;5.86;69.49;102411.47;5036959;28;45553;-78
2022/01/27 05:24:47;;;;;;;;;46.00;38.00;;;;;5.87;69.96;102410.63;5037149;28;45548;-75
2022/01/27 05:27:12;;;;;;;;;46.25;35.75;;;;;5.90;69.71;102420.94;5036542;28;47142;-76
2022/01/27 05:29:38;;;;;;;;;42.50;38.00;;;;;5.89;69.50;102410.56;5036671;28;46077;-77
2022/01/27 05:32:05;;;;;;;;;47.00;36.00;;;;;5.83;69.52;102400.31;5036443;28;45690;-76
2022/01/27 05:34:30;;;;;;;;;35.25;32.25;;;;;5.89;69.92;102408.84;5037186;28;45939;-76
2022/01/27 05:36:56;;;;;;;;;42.00;32.75;;;;;5.85;69.33;102403.72;5036897;28;46141;-78
2022/01/27 05:39:21;;;;;;;;;48.75;38.25;;;;;5.89;69.67;102416.63;5036976;28;45755;-78
2022/01/27 05:41:47;;;;;;;;;44.25;38.00;;;;;5.91;69.26;102421.81;5036704;28;45659;-77
2022/01/27 05:44:12;;;;;;;;;41.00;33.25;;;;;5.92;69.44;102423.53;5036823;28;45535;-76
2022/01/27 05:46:37;;;;;;;;;43.50;34.75;;;;;5.90;69.40;102410.56;5037019;28;45629;-78
2022/01/27 05:49:04;;;;;;;;;39.00;33.00;;;;;5.91;69.59;102406.19;5052132;28;46488;-77
2022/01/27 05:51:30;;;;;;;;;44.50;38.00;;;;;5.93;69.43;102403.59;5036576;28;45922;-78
2022/01/27 05:57:17;;;;;;;;;42.75;39.50;;;;;5.91;69.87;102401.00;5036435;28;45611;-77
2022/01/27 05:59:43;;;;;;;;;37.75;32.75;;;;;5.95;69.71;102405.25;5036033;28;46590;-78
2022/01/27 06:02:08;;;;;;;;;43.50;36.00;;;;;5.94;69.83;102400.91;5036287;28;45668;-79
2022/01/27 06:04:33;;;;;;;;;38.75;33.75;;;;;5.92;69.48;102399.25;5036253;28;45559;-77
2022/01/27 06:06:59;;;;;;;;;49.75;32.75;;;;;5.89;69.58;102392.38;5036312;28;45594;-79
2022/01/27 06:12:49;;;;;;;;;43.00;35.50;;;;;5.97;69.24;102413.88;5036255;28;45575;-77
2022/01/27 06:15:15;;;;;;;;;36.75;28.75;;;;;5.95;69.46;102428.66;5036742;28;45506;-78
2022/01/27 06:17:40;;;;;;;;;42.50;31.00;;;;;5.92;69.38;102423.53;5036669;28;46168;-78
2022/01/27 06:20:07;;;;;;;;;42.50;32.00;;;;;5.93;69.56;102432.19;5036291;28;46135;-79
2022/01/27 06:22:32;;;;;;;;;37.50;29.00;;;;;5.89;69.65;102424.44;5036610;28;45906;-76
2022/01/27 06:24:58;;;;;;;;;45.25;36.50;;;;;5.90;69.73;102426.16;5036794;28;45785;-79
2022/01/27 06:27:23;;;;;;;;;38.75;30.75;;;;;5.83;69.23;102421.94;5036314;28;46329;-76
2022/01/27 06:29:49;;;;;;;;;38.00;29.75;;;;;5.76;69.65;102402.19;5036149;28;45723;-80
2022/01/27 06:32:14;;;;;;;;;39.25;34.00;;;;;5.90;69.34;102427.91;5036095;28;45578;-77
2022/01/27 06:34:39;;;;;;;;;38.25;31.00;;;;;5.90;69.67;102435.69;5036507;28;45616;-77
2022/01/27 06:37:05;;;;;;;;;10.00;5.75;;;;;5.87;69.24;102434.03;5034833;28;46238;-77
2022/01/27 06:42:52;;;;;;;;;41.25;31.00;;;;;5.71;69.20;102440.44;5036783;28;45680;-78
2022/01/27 06:45:17;;;;;;;;;43.50;26.50;;;;;5.68;69.72;102434.41;5037419;28;45886;-77
2022/01/27 06:47:43;;;;;;;;;38.25;30.00;;;;;5.59;69.48;102422.50;5037280;28;45622;-79
2022/01/27 06:50:09;;;;;;;;;39.00;32.50;;;;;5.57;69.49;102423.38;5037459;28;45613;-78
2022/01/27 06:52:34;;;;;;;;;40.25;30.75;;;;;5.70;69.48;102438.72;5037224;28;45642;-77
2022/01/27 06:55:02;;;;;;;;;37.75;33.25;;;;;5.60;69.65;102411.22;5037438;28;45567;-79
2022/01/27 06:57:28;;;;;;;;;45.75;37.25;;;;;5.67;69.34;102430.97;5040859;28;46361;-79
2022/01/27 06:59:53;;;;;;;;;36.00;32.25;;;;;5.62;69.65;102421.53;5053750;28;45492;-78
2022/01/27 07:02:18;;;;;;;;;40.00;27.25;;;;;5.72;69.47;102441.28;5057334;28;45460;-77
2022/01/27 07:04:44;;;;;;;;;36.75;26.75;;;;;5.66;69.66;102433.63;5057614;28;45615;-77
2022/01/27 07:07:10;;;;;;;;;36.50;30.25;;;;;5.68;69.41;102432.69;5057586;28;45167;-78
2022/01/27 07:12:57;;;;;;;;;43.50;31.75;;;;;5.78;69.26;102447.19;5052753;28;45167;-77
2022/01/27 07:15:23;;;;;;;;;43.75;39.50;;;;;5.79;69.49;102448.06;5054937;28;45608;-78
2022/01/27 07:17:48;;;;;;;;;39.75;35.25;;;;;5.77;69.56;102442.03;5049000;28;45542;-79
2022/01/27 07:20:15;;;;;;;;;40.75;34.75;;;;;5.76;69.67;102451.59;5037821;28;46405;-78
2022/01/27 07:22:40;;;;;;;;;45.00;35.25;;;;;5.81;69.74;102460.16;5036423;28;45642;-77
2022/01/27 07:28:27;;;;;;;;;28.50;23.00;;;;;5.79;69.74;102442.84;5025097;28;46064;-76
2022/01/27 07:30:53;;;;;;;;;39.00;31.00;;;;;5.82;69.86;102446.25;5036167;28;46144;-80
2022/01/27 07:33:18;;;;;;;;;36.00;29.75;;;;;5.83;69.79;102452.31;5036173;28;45980;-77
2022/01/27 07:35:44;;;;;;;;;41.00;32.00;;;;;5.82;69.38;102448.00;5036093;28;45591;-76
2022/01/27 07:38:09;;;;;;;;;44.75;33.75;;;;;5.81;69.51;102443.69;5034705;28;47185;-77
2022/01/27 07:40:38;;;;;;;;;37.50;34.00;;;;;5.87;69.65;102440.97;5050936;28;45959;-76
2022/01/27 07:43:03;;;;;;;;;43.75;33.50;;;;;5.89;69.48;102442.66;5035901;28;45718;-77
2022/01/27 07:45:29;;;;;;;;;40.50;34.75;;;;;5.79;69.54;102424.66;5034056;28;46010;-78
2022/01/27 07:47:55;;;;;;;;;44.00;33.50;;;;;5.92;69.63;102438.28;5050359;28;47728;-75
2022/01/27 07:50:21;;;;;;;;;40.75;33.25;;;;;5.92;69.59;102441.75;5035475;28;46079;-77
2022/01/27 07:52:47;;;;;;;;;46.75;34.00;;;;;5.83;69.45;102421.13;5035056;28;45853;-77
2022/01/27 07:58:40;;;;;;;;;44.25;30.75;;;;;5.93;69.54;102440.00;5034990;28;46038;-77
2022/01/27 08:01:08;;;;;;;;;35.75;32.50;;;;;5.93;69.46;102445.19;5034920;28;46567;-77
2022/01/27 08:03:35;;;;;;;;;39.50;31.50;;;;;5.95;69.53;102440.78;5034949;28;45955;-80
2022/01/27 08:06:01;;;;;;;;;43.00;34.50;;;;;5.98;69.93;102440.75;5035256;28;45550;-79
2022/01/27 08:08:26;;;;;;;;;43.00;33.50;;;;;5.99;69.25;102453.72;5034837;28;45661;-80
2022/01/27 08:10:52;;;;;;;;;39.00;30.25;;;;;6.00;69.16;102444.16;5034980;28;45680;-80
2022/01/27 08:13:17;;;;;;;;;48.25;31.50;;;;;6.02;69.73;102452.78;5034627;28;45519;-76
2022/01/27 08:15:43;;;;;;;;;31.00;25.75;;;;;6.03;69.43;102450.16;5034764;28;45554;-79
2022/01/27 08:18:09;;;;;;;;;36.75;31.50;;;;;6.00;69.39;102439.81;5034606;28;45541;-77
2022/01/27 08:20:37;;;;;;;;;41.25;31.75;;;;;5.90;69.58;102428.75;5034830;28;45741;-77
2022/01/27 08:23:03;;;;;;;;;44.75;39.25;;;;;6.05;69.58;102458.75;5034747;28;45522;-80
2022/01/27 08:28:58;;;;;;;;;41.75;33.75;;;;;6.09;69.54;102459.56;5041452;28;45551;-79
2022/01/27 08:31:32;;;;;;;;;47.50;36.50;;;;;6.11;69.49;102458.63;5041781;28;46572;-78
2022/01/27 08:34:03;;;;;;;;;44.50;33.50;;;;;6.11;69.42;102457.78;5037574;28;45696;-79
2022/01/27 08:36:28;;;;;;;;;45.50;34.00;;;;;6.18;69.46;102464.56;5034610;28;45630;-79
2022/01/27 08:38:53;;;;;;;;;46.00;31.75;;;;;6.18;69.71;102473.22;5034215;28;45718;-80
2022/01/27 08:41:19;;;;;;;;;52.75;39.50;;;;;6.18;69.22;102464.56;5034441;28;45675;-79
2022/01/27 08:43:46;;;;;;;;;43.75;34.25;;;;;6.18;69.50;102457.59;5049697;28;45610;-78
2022/01/27 08:46:11;;;;;;;;;53.25;39.00;;;;;6.08;69.38;102447.44;5049454;28;45864;-77
2022/01/27 08:48:39;;;;;;;;;42.25;38.75;;;;;6.12;69.46;102446.47;5033889;28;46639;-79
2022/01/27 08:51:10;;;;;;;;;43.50;34.75;;;;;6.14;69.50;102447.31;5033768;28;46053;-78
2022/01/27 08:53:37;;;;;;;;;45.25;37.50;;;;;6.23;69.38;102457.50;5033781;28;45929;-78
2022/01/27 08:56:03;;;;;;;;;34.75;28.00;;;;;6.27;69.10;102459.97;5034306;28;45583;-80
2022/01/27 08:58:31;;;;;;;;;42.50;31.50;;;;;6.28;69.52;102453.03;5034218;28;46467;-76
2022/01/27 09:00:57;;;;;;;;;38.75;31.50;;;;;6.19;69.67;102438.50;5033424;28;47095;-81
2022/01/27 09:03:22;;;;;;;;;49.25;36.25;;;;;6.29;69.38;102455.59;5034394;28;45625;-79
2022/01/27 09:05:48;;;;;;;;;40.25;33.00;;;;;6.31;69.55;102450.38;5049936;28;45519;-81
2022/01/27 09:08:13;;;;;;;;;37.00;32.75;;;;;6.34;69.45;102445.09;5034531;28;46168;-79
2022/01/27 09:14:03;;;;;;;;;44.50;33.00;;;;;6.37;69.49;102429.38;5035010;28;45645;-78
2022/01/27 09:16:31;;;;;;;;;40.75;32.75;;;;;6.42;69.13;102431.91;5035268;28;45677;-79
2022/01/27 09:19:01;;;;;;;;;41.50;32.75;;;;;6.44;69.17;102430.94;5040064;28;45657;-78
2022/01/27 09:21:35;;;;;;;;;44.25;28.75;;;;;6.48;68.88;102431.75;5038942;28;46007;-79
2022/01/27 09:24:01;;;;;;;;;42.75;32.50;;;;;6.50;69.26;102435.16;5039134;28;45522;-77
2022/01/27 09:26:41;;;;;;;;;34.25;27.50;;;;;6.51;68.99;102426.44;5040478;28;45516;-78
2022/01/27 09:29:08;;;;;;;;;37.50;31.00;;;;;6.49;69.25;102425.63;5041403;28;46846;-78
2022/01/27 09:31:34;;;;;;;;;40.50;27.50;;;;;6.49;69.24;102415.22;5040069;28;46247;-78
2022/01/27 09:34:00;;;;;;;;;32.00;28.75;;;;;6.44;68.99;102404.06;5044413;28;45228;-76
2022/01/27 09:36:27;;;;;;;;;50.00;37.50;;;;;6.56;69.16;102424.59;5049189;28;45825;-79
2022/01/27 09:38:52;;;;;;;;;40.50;34.00;;;;;6.63;69.18;102433.97;5048336;28;46626;-81
2022/01/27 09:41:22;;;;;;;;;40.50;32.75;;;;;6.66;69.05;102436.47;5052073;28;45479;-79
2022/01/27 09:43:51;;;;;;;;;40.75;34.75;;;;;6.63;68.86;102419.19;5041056;28;45861;-82
2022/01/27 09:46:19;;;;;;;;;43.00;33.25;;;;;6.70;69.32;102423.34;5037597;28;45563;-82
2022/01/27 09:48:47;;;;;;;;;38.00;35.25;;;;;6.65;69.09;102412.19;5051771;28;46753;-81
2022/01/27 09:53:46;;;;;;;;;40.75;33.25;;;;;6.75;69.08;102431.03;5036811;28;45952;-80
2022/01/27 09:56:12;;;;;;;;;42.00;37.25;;;;;6.74;68.96;102431.94;5036643;28;45621;-79
2022/01/27 09:58:39;;;;;;;;;44.00;33.75;;;;;6.82;69.17;102423.91;5036564;28;46348;-80
2022/01/27 10:01:05;;;;;;;;;37.50;26.50;;;;;6.86;69.09;102431.59;5051885;28;46243;-78
2022/01/27 10:03:31;;;;;;;;;41.25;32.50;;;;;6.89;68.90;102423.72;5036434;28;45984;-80
2022/01/27 10:06:13;;;;;;;;;40.25;33.00;;;;;6.90;68.88;102421.97;5036818;28;45448;-80
2022/01/27 10:08:42;;;;;;;;;40.50;33.50;;;;;6.91;69.05;102415.88;5036454;28;45593;-81
2022/01/27 10:14:35;;;;;;;;;37.25;32.50;;;;;7.02;68.80;102419.88;5036510;28;45528;-80
2022/01/27 10:17:07;;;;;;;;;35.00;25.75;;;;;7.05;68.86;102421.56;5036475;28;45905;-81
2022/01/27 10:19:35;;;;;;;;;53.50;40.00;;;;;7.03;68.86;102410.31;5036017;28;46530;-79
2022/01/27 10:22:15;;;;;;;;;37.75;31.75;;;;;7.09;68.82;102413.59;5036079;28;46067;-80
2022/01/27 10:24:43;;;;;;;;;42.25;35.75;;;;;7.16;68.68;102422.13;5036380;28;45947;-81
2022/01/27 10:27:33;;;;;;;;;40.25;26.50;;;;;7.21;68.58;102435.00;5036450;28;45853;-79
2022/01/27 10:30:35;;;;;;;;;35.75;31.75;;;;;7.21;68.44;102437.63;5038696;28;45621;-80
2022/01/27 10:32:51;;;;;;;;;31.00;29.00;;;;;7.18;68.54;102425.50;5041136;28;46160;-79
2022/01/27 10:35:21;;;;;;;;;41.00;32.75;;;;;7.20;68.63;102434.16;5040285;28;45844;-81
2022/01/27 10:37:58;;;;;;;;;39.50;34.50;;;;;7.22;68.53;102429.78;5039709;28;45674;-80
2022/01/27 10:40:46;;;;;;;;;41.00;31.25;;;;;7.23;68.59;102430.63;5037208;28;46439;-81
2022/01/27 10:43:19;;;;;;;;;38.00;33.50;;;;;7.27;68.64;102420.06;5036758;28;46412;-79
2022/01/27 10:46:11;;;;;;;;;46.75;36.00;;;;;7.31;68.28;102415.59;5036555;28;45611;-79
2022/01/27 10:49:06;;;;;;;;;39.50;33.50;;;;;7.32;68.55;102412.09;5036091;28;45572;-82
2022/01/27 10:51:45;;;;;;;;;41.50;32.50;;;;;7.36;68.52;102405.91;5034459;28;45480;-78
2022/01/27 10:57:33;;;;;;;;;42.50;35.50;;;;;7.40;68.45;102404.91;5035605;28;46004;-79
2022/01/27 11:00:11;;;;;;;;;39.75;31.00;;;;;7.35;68.36;102412.88;5035975;28;45722;-80
2022/01/27 11:02:56;;;;;;;;;42.25;32.50;;;;;7.39;68.47;102408.44;5035741;28;46888;-80
2022/01/27 11:05:29;;;;;;;;;41.50;28.75;;;;;7.43;68.36;102410.91;5035646;28;46140;-80
2022/01/27 11:07:55;;;;;;;;;44.00;33.00;;;;;7.32;68.54;102396.47;5035319;28;45558;-82
2022/01/27 11:13:44;;;;;;;;;44.75;36.00;;;;;7.51;68.22;102411.53;5035162;28;45608;-83
2022/01/27 11:16:13;;;;;;;;;40.75;32.50;;;;;7.57;68.45;102407.88;5035697;28;45995;-80
2022/01/27 11:18:40;;;;;;;;;36.50;30.50;;;;;7.62;68.52;102416.41;5036083;28;45535;-83
2022/01/27 11:21:13;;;;;;;;;39.00;30.75;;;;;7.74;68.26;102426.50;5038123;28;45662;-83
2022/01/27 11:29:30;;;;;;;;;41.50;34.25;;;;;7.88;68.19;102416.47;5033356;28;45713;-76
2022/01/27 11:32:21;;;;;;;;;42.00;33.00;;;;;7.92;68.14;102414.66;5034591;28;45644;-81
2022/01/27 11:34:49;;;;;;;;;40.00;38.00;;;;;7.91;68.02;102410.31;5034504;28;46463;-78
2022/01/27 11:37:18;;;;;;;;;47.00;38.75;;;;;7.96;68.04;102406.69;5034216;28;46901;-78
2022/01/27 11:39:48;;;;;;;;;35.25;30.50;;;;;7.96;67.89;102396.22;5032958;28;45669;-77
2022/01/27 11:42:13;;;;;;;;;45.25;37.50;;;;;7.90;67.93;102386.00;5034530;28;45512;-78
2022/01/27 11:44:43;;;;;;;;;35.00;31.00;;;;;7.94;67.83;102397.16;5034330;28;46451;-81
2022/01/27 11:47:08;;;;;;;;;39.00;28.25;;;;;7.95;67.67;102399.75;5034473;28;46376;-78
2022/01/27 11:49:53;;;;;;;;;44.50;36.50;;;;;7.93;67.86;102388.53;5034536;28;45536;-78
2022/01/27 11:52:26;;;;;;;;;40.75;35.50;;;;;7.94;67.65;102381.50;5034529;28;45832;-78
2022/01/27 11:54:52;;;;;;;;;33.75;30.25;;;;;7.92;67.80;102367.69;5034293;28;46736;-77
2022/01/27 11:57:40;;;;;;;;;41.50;33.50;;;;;7.99;67.57;102371.78;5034165;28;45633;-77
2022/01/27 12:00:26;;;;;;;;;38.75;33.00;;;;;8.02;67.66;102376.91;5034589;28;45802;-80
2022/01/27 12:03:00;;;;;;;;;36.50;29.25;;;;;8.04;67.56;102376.88;5034026;28;45725;-79
2022/01/27 12:05:38;;;;;;;;;39.75;32.75;;;;;8.07;67.66;102366.31;5034260;28;45665;-78
2022/01/27 12:08:09;;;;;;;;;46.00;35.25;;;;;8.09;67.56;102367.16;5034073;28;46085;-75
2022/01/27 12:10:50;;;;;;;;;43.25;34.75;;;;;8.13;67.58;102371.34;5034375;28;45598;-76
2022/01/27 12:13:28;;;;;;;;;37.25;31.75;;;;;8.16;67.54;102364.25;5034044;28;45484;-79
2022/01/27 12:19:08;;;;;;;;;45.50;35.50;;;;;8.20;67.56;102370.25;5033615;28;46106;-78
2022/01/27 12:22:04;;;;;;;;;36.00;32.00;;;;;8.21;67.38;102367.56;5033897;28;45902;-78
2022/01/27 12:24:31;;;;;;;;;45.25;33.25;;;;;8.21;67.45;102369.31;5033873;28;45571;-79
2022/01/27 12:27:07;;;;;;;;;44.75;36.50;;;;;8.24;67.42;102372.72;5033780;28;46579;-75
2022/01/27 12:29:47;;;;;;;;;47.25;39.75;;;;;8.17;67.31;102358.16;5033490;28;46699;-79
2022/01/27 12:32:16;;;;;;;;;43.00;37.50;;;;;8.31;67.46;102382.06;5049142;28;45949;-78
2022/01/27 12:34:49;;;;;;;;;43.00;33.00;;;;;8.23;67.32;102351.88;5034066;28;45605;-79
2022/01/27 12:37:18;;;;;;;;;46.25;35.25;;;;;8.39;67.39;102382.66;5033564;28;46391;-78
2022/01/27 12:43:14;;;;;;;;;41.25;35.25;;;;;8.30;67.34;102353.41;5033567;28;45667;-78
2022/01/27 12:45:42;;;;;;;;;39.75;30.00;;;;;8.46;67.37;102370.28;5033822;28;45702;-80
2022/01/27 12:48:11;;;;;;;;;45.75;36.00;;;;;8.48;67.33;102375.41;5033665;28;45747;-78
2022/01/27 12:50:38;;;;;;;;;41.25;34.25;;;;;8.45;67.36;102362.47;5033634;28;46117;-80
2022/01/27 12:53:13;;;;;;;;;39.50;32.00;;;;;8.52;67.40;102367.44;5033811;28;45955;-79
2022/01/27 12:59:01;;;;;;;;;39.75;32.50;;;;;8.48;67.07;102354.53;5033061;28;45551;-78
2022/01/27 13:01:33;;;;;;;;;42.50;29.75;;;;;8.46;67.16;102328.47;5033430;28;46321;-80